createdAt,value
2019-04-11T00:01:38.673Z,30.00
2019-04-11T00:04:01.623Z,30.00
2019-04-11T00:06:31.787Z,30.00
2019-04-11T00:09:02.636Z,30.00
2019-04-11T00:11:33.954Z,29.90
2019-04-11T00:14:03.533Z,29.80
2019-04-11T00:16:33.162Z,29.80
2019-04-11T00:19:03.116Z,29.70
2019-04-11T00:21:32.982Z,29.70
2019-04-11T00:24:02.857Z,29.70
2019-04-11T00:26:33.599Z,29.60
2019-04-11T00:29:03.944Z,30.10
2019-04-11T00:31:34.752Z,29.60
2019-04-11T00:34:05.392Z,29.50
2019-04-11T00:36:36.764Z,29.50
2019-04-11T00:39:07.987Z,29.50
2019-04-11T00:41:37.762Z,29.60
2019-04-11T00:44:08.307Z,29.40
2019-04-11T00:46:39.190Z,29.40
2019-04-11T00:49:08.764Z,29.40
2019-04-11T00:51:38.353Z,29.30
2019-04-11T00:54:08.792Z,29.30
2019-04-11T00:56:38.525Z,29.30
2019-04-11T00:59:08.149Z,29.20
2019-04-11T01:01:37.722Z,29.20
2019-04-11T01:04:07.611Z,29.20
2019-04-11T01:06:38.362Z,29.10
2019-04-11T01:09:08.280Z,29.20
2019-04-11T01:11:39.320Z,29.00
2019-04-11T01:14:09.985Z,29.10
2019-04-11T01:16:45.049Z,29.00
2019-04-11T01:19:14.852Z,29.00
2019-04-11T01:21:44.635Z,28.90
2019-04-11T01:24:14.216Z,28.90
2019-04-11T01:26:43.797Z,28.90
2019-04-11T01:29:13.448Z,28.90
2019-04-11T01:31:44.622Z,28.90
2019-04-11T01:34:14.201Z,28.90
2019-04-11T01:36:45.095Z,28.80
2019-04-11T01:39:26.371Z,28.90
2019-04-11T01:41:58.561Z,28.90
2019-04-11T01:44:28.417Z,29.10
2019-04-11T01:46:58.310Z,28.90
2019-04-11T01:49:30.327Z,28.90
2019-04-11T01:52:02.434Z,28.90
2019-04-11T01:54:32.358Z,28.90
2019-04-11T01:57:03.514Z,28.80
2019-04-11T01:59:33.278Z,28.80
2019-04-11T02:02:09.457Z,28.80
2019-04-11T02:04:46.554Z,28.70
2019-04-11T02:07:16.324Z,28.80
2019-04-11T02:09:46.371Z,28.80
2019-04-11T02:12:16.256Z,28.80
2019-04-11T02:14:45.970Z,28.80
2019-04-11T02:17:16.768Z,28.80
2019-04-11T02:19:46.435Z,28.80
2019-04-11T02:22:20.604Z,28.80
2019-04-11T02:24:52.262Z,28.80
2019-04-11T02:27:24.783Z,28.80
2019-04-11T02:29:55.127Z,28.90
2019-04-11T02:32:28.651Z,29.00
2019-04-11T02:34:59.139Z,28.80
2019-04-11T02:37:29.391Z,28.90
2019-04-11T02:40:00.081Z,28.80
2019-04-11T02:42:30.670Z,28.90
2019-04-11T02:45:16.537Z,28.80
2019-04-11T02:47:36.913Z,28.90
2019-04-11T02:50:06.612Z,28.80
2019-04-11T02:52:37.796Z,28.90
2019-04-11T02:55:09.709Z,28.80
2019-04-11T02:57:40.572Z,28.90
2019-04-11T03:00:11.082Z,28.90
2019-04-11T03:02:42.549Z,28.90
2019-04-11T03:05:13.679Z,28.90
2019-04-11T03:07:43.530Z,28.90
2019-04-11T03:10:14.079Z,28.90
2019-04-11T03:12:46.007Z,28.90
2019-04-11T03:15:31.764Z,28.90
2019-04-11T03:17:48.480Z,28.90
2019-04-11T03:20:26.372Z,28.90
2019-04-11T03:22:56.499Z,29.50
2019-04-11T03:25:20.126Z,28.90
2019-04-11T03:27:51.617Z,28.90
2019-04-11T03:30:30.186Z,28.90
2019-04-11T03:38:18.448Z,29.00
2019-04-11T03:40:43.862Z,29.00
2019-04-11T03:43:08.937Z,29.00
2019-04-11T03:45:47.914Z,29.60
2019-04-11T03:48:12.415Z,29.00
2019-04-11T03:50:32.872Z,29.10
2019-04-11T03:53:04.781Z,29.10
2019-04-11T03:55:34.992Z,29.10
2019-04-11T03:58:06.253Z,29.10
2019-04-11T04:00:38.402Z,29.10
2019-04-11T04:03:08.950Z,29.10
2019-04-11T04:05:39.052Z,29.10
2019-04-11T04:08:10.862Z,29.10
2019-04-11T04:10:43.607Z,29.10
2019-04-11T04:13:16.980Z,29.10
2019-04-11T04:16:02.761Z,29.70
2019-04-11T04:18:43.741Z,29.20
2019-04-11T04:21:17.281Z,29.20
2019-04-11T04:23:47.123Z,29.20
2019-04-11T04:26:17.007Z,29.20
2019-04-11T04:28:47.702Z,29.20
2019-04-11T04:31:18.458Z,29.20
2019-04-11T04:33:48.790Z,29.20
2019-04-11T04:36:18.564Z,29.20
2019-04-11T04:38:48.835Z,29.20
2019-04-11T04:41:29.787Z,29.20
2019-04-11T04:43:50.690Z,29.30
2019-04-11T04:46:34.820Z,29.20
2019-04-11T04:48:53.967Z,29.30
2019-04-11T04:51:24.341Z,29.30
2019-04-11T04:53:55.693Z,29.30
2019-04-11T04:56:29.502Z,29.30
2019-04-11T04:58:58.514Z,29.30
2019-04-11T05:01:29.091Z,29.30
2019-04-11T05:04:00.237Z,29.30
2019-04-11T05:06:29.803Z,29.30
2019-04-11T05:09:00.264Z,29.40
2019-04-11T05:11:30.542Z,29.40
2019-04-11T05:14:00.898Z,29.40
2019-04-11T05:16:30.700Z,29.30
2019-04-11T05:19:00.880Z,29.40
2019-04-11T05:21:30.525Z,29.40
2019-04-11T05:24:00.101Z,29.60
2019-04-11T05:26:29.669Z,29.40
2019-04-11T05:29:00.619Z,29.40
2019-04-11T05:31:30.383Z,29.40
2019-04-11T05:33:59.937Z,29.40
2019-04-11T05:36:30.411Z,29.40
2019-04-11T05:39:00.400Z,29.40
2019-04-11T05:41:31.721Z,29.40
2019-04-11T05:44:03.491Z,29.50
2019-04-11T05:46:40.874Z,29.70
2019-04-11T05:49:14.198Z,29.90
2019-04-11T05:51:47.526Z,29.90
2019-04-11T05:54:16.547Z,30.00
2019-04-11T05:56:52.107Z,30.30
2019-04-11T05:59:20.416Z,30.30
2019-04-11T06:01:52.998Z,30.30
2019-04-11T06:04:40.488Z,30.40
2019-04-11T06:07:20.964Z,30.40
2019-04-11T06:09:52.532Z,30.40
2019-04-11T06:12:40.046Z,30.50
2019-04-11T06:15:16.912Z,30.40
2019-04-11T06:17:48.240Z,30.50
2019-04-11T06:20:27.165Z,30.50
2019-04-11T06:22:58.408Z,30.40
2019-04-11T06:25:38.066Z,30.60
2019-04-11T06:28:09.575Z,30.40
2019-04-11T06:30:46.918Z,30.60
2019-04-11T06:33:18.526Z,30.80
2019-04-11T06:35:52.606Z,30.70
2019-04-11T06:38:40.765Z,30.60
2019-04-11T06:41:20.799Z,30.70
2019-04-11T06:43:54.408Z,30.60
2019-04-11T06:46:25.556Z,30.60
2019-04-11T06:49:02.514Z,30.60
2019-04-11T06:51:33.677Z,30.60
2019-04-11T06:54:10.762Z,30.50
2019-04-11T06:56:41.912Z,30.60
2019-04-11T06:59:14.323Z,30.70
2019-04-11T07:01:45.561Z,30.60
2019-04-11T07:04:19.771Z,30.60
2019-04-11T07:06:51.749Z,30.50
2019-04-11T07:09:28.804Z,30.50
2019-04-11T07:12:05.984Z,30.50
2019-04-11T07:14:53.053Z,30.70
2019-04-11T07:17:40.708Z,30.60
2019-04-11T07:20:18.652Z,30.70
2019-04-11T07:23:06.520Z,31.50
2019-04-11T07:25:43.818Z,30.60
2019-04-11T07:28:17.183Z,30.60
2019-04-11T07:31:04.515Z,30.60
2019-04-11T07:33:45.082Z,30.50
2019-04-11T07:36:36.167Z,30.40
2019-04-11T07:39:12.892Z,30.40
2019-04-11T07:41:45.652Z,30.40
2019-04-11T07:44:30.545Z,31.20
2019-04-11T07:47:17.290Z,30.30
2019-04-11T07:49:54.950Z,30.40
2019-04-11T07:52:24.997Z,30.30
2019-04-11T07:54:56.425Z,30.40
2019-04-11T07:57:30.670Z,31.10
2019-04-11T08:00:10.574Z,30.40
2019-04-11T08:02:41.677Z,30.30
2019-04-11T08:05:19.264Z,30.30
2019-04-11T08:07:51.425Z,30.30
2019-04-11T08:10:29.384Z,30.30
2019-04-11T08:13:19.102Z,30.30
2019-04-11T08:16:06.460Z,30.30
2019-04-11T08:18:53.584Z,30.30
2019-04-11T08:21:41.931Z,30.30
2019-04-11T08:24:16.367Z,30.30
2019-04-11T08:27:03.496Z,30.40
2019-04-11T08:29:34.026Z,31.00
2019-04-11T08:32:22.026Z,31.10
2019-04-11T08:35:12.261Z,30.20
2019-04-11T08:37:49.153Z,30.30
2019-04-11T08:40:20.411Z,30.50
2019-04-11T08:43:07.691Z,30.50
2019-04-11T08:45:51.792Z,30.50
2019-04-11T08:48:21.479Z,30.70
2019-04-11T08:50:52.608Z,30.70
2019-04-11T08:53:40.675Z,30.80
2019-04-11T08:56:10.810Z,30.80
2019-04-11T08:58:55.121Z,30.80
2019-04-11T09:01:24.977Z,30.70
2019-04-11T09:04:13.704Z,30.70
2019-04-11T09:06:42.998Z,30.70
2019-04-11T09:09:31.481Z,30.60
2019-04-11T09:12:02.770Z,30.60
2019-04-11T09:14:52.686Z,30.50
2019-04-11T09:17:24.679Z,30.50
2019-04-11T09:19:56.932Z,30.50
2019-04-11T09:22:37.402Z,30.50
2019-04-11T09:25:08.873Z,30.40
2019-04-11T09:27:47.101Z,31.10
2019-04-11T09:30:19.066Z,30.50
2019-04-11T09:32:56.202Z,30.30
2019-04-11T09:35:33.395Z,30.30
2019-04-11T09:38:18.057Z,30.20
2019-04-11T09:41:06.071Z,30.20
2019-04-11T09:43:37.360Z,30.20
2019-04-11T09:46:18.589Z,30.20
2019-04-11T09:48:56.098Z,30.20
2019-04-11T09:51:42.340Z,30.20
2019-04-11T09:54:13.451Z,30.40
2019-04-11T09:57:02.176Z,30.40
2019-04-11T09:59:33.464Z,30.40
2019-04-11T10:02:21.237Z,30.30
2019-04-11T10:04:52.363Z,30.50
2019-04-11T10:07:35.593Z,30.40
2019-04-11T10:10:24.627Z,30.40
2019-04-11T10:13:12.971Z,30.40
2019-04-11T10:16:00.244Z,30.30
2019-04-11T10:18:44.302Z,30.40
2019-04-11T10:21:15.532Z,30.50
2019-04-11T10:24:02.990Z,30.60
2019-04-11T10:26:40.378Z,30.70
2019-04-11T10:29:31.389Z,30.70
2019-04-11T10:32:01.188Z,30.80
2019-04-11T10:34:49.965Z,30.90
2019-04-11T10:37:21.067Z,31.70
2019-04-11T10:39:53.429Z,31.00
2019-04-11T10:42:24.983Z,31.10
2019-04-11T10:45:08.111Z,31.00
2019-04-11T10:47:38.766Z,31.80
2019-04-11T10:50:11.060Z,31.10
2019-04-11T10:52:45.334Z,32.30
2019-04-11T10:55:17.481Z,32.50
2019-04-11T10:58:04.811Z,32.90
2019-04-11T11:00:36.091Z,32.80
2019-04-11T11:03:07.225Z,32.70
2019-04-11T11:05:49.315Z,32.60
2019-04-11T11:08:35.880Z,32.60
2019-04-11T11:11:08.099Z,32.50
2019-04-11T11:13:40.655Z,32.50
2019-04-11T11:16:11.874Z,32.40
2019-04-11T11:19:15.693Z,32.40
2019-04-11T11:21:15.608Z,32.30
2019-04-11T11:24:06.287Z,32.20
2019-04-11T11:26:35.477Z,32.20
2019-04-11T11:29:11.583Z,32.00
2019-04-11T11:31:42.832Z,31.90
2019-04-11T11:34:17.359Z,31.80
2019-04-11T11:36:56.705Z,31.60
2019-04-11T11:39:31.141Z,31.60
2019-04-11T11:42:14.463Z,31.50
2019-04-11T11:44:55.252Z,31.40
2019-04-11T11:47:44.918Z,31.30
2019-04-11T11:50:18.738Z,31.20
2019-04-11T11:53:09.793Z,31.10
2019-04-11T11:55:38.382Z,31.00
2019-04-11T11:58:17.035Z,31.00
2019-04-11T12:00:49.931Z,30.90
2019-04-11T12:03:40.298Z,30.80
2019-04-11T12:06:09.607Z,30.70
2019-04-11T12:08:58.235Z,30.70
2019-04-11T12:11:28.326Z,30.60
2019-04-11T12:14:05.218Z,30.60
2019-04-11T12:16:39.840Z,30.60
2019-04-11T12:19:28.882Z,31.20
2019-04-11T12:22:00.128Z,30.40
2019-04-11T12:24:34.413Z,30.40
2019-04-11T12:27:16.260Z,30.40
2019-04-11T12:29:59.990Z,30.30
2019-04-11T12:32:32.773Z,30.30
2019-04-11T12:35:24.643Z,30.20
2019-04-11T12:37:56.073Z,30.10
2019-04-11T12:40:36.392Z,30.10
2019-04-11T12:43:07.567Z,30.10
2019-04-11T12:45:39.680Z,30.00
2019-04-11T12:48:11.904Z,30.00
2019-04-11T12:51:01.255Z,30.00
2019-04-11T12:53:31.677Z,30.00
2019-04-11T12:56:05.659Z,30.00
2019-04-11T12:58:39.584Z,30.00
2019-04-11T13:01:10.716Z,29.90
2019-04-11T13:03:50.380Z,30.00
2019-04-11T13:06:21.603Z,29.90
2019-04-11T13:09:08.796Z,29.80
2019-04-11T13:11:52.043Z,29.90
2019-04-11T13:14:23.208Z,29.80
2019-04-11T13:17:06.750Z,29.80
2019-04-11T13:20:04.263Z,29.70
2019-04-11T13:22:26.235Z,29.70
2019-04-11T13:25:13.988Z,29.80
2019-04-11T13:27:47.825Z,29.80
2019-04-11T13:30:35.153Z,29.70
2019-04-11T13:33:04.839Z,29.80
2019-04-11T13:35:38.458Z,29.70
2019-04-11T13:38:17.626Z,29.70
2019-04-11T13:40:48.867Z,29.70
2019-04-11T13:43:35.263Z,29.60
2019-04-11T13:46:09.500Z,29.60
2019-04-11T13:48:57.072Z,29.50
2019-04-11T13:51:30.952Z,29.50
2019-04-11T13:54:18.360Z,29.50
2019-04-11T13:56:55.183Z,29.50
2019-04-11T13:59:35.333Z,29.50
2019-04-11T14:02:16.284Z,29.50
2019-04-11T14:04:56.423Z,29.40
2019-04-11T14:07:30.355Z,29.50
2019-04-11T14:10:02.360Z,29.50
2019-04-11T14:12:34.104Z,29.50
2019-04-11T14:15:06.857Z,29.40
2019-04-11T14:17:43.962Z,29.50
2019-04-11T14:20:29.671Z,29.50
2019-04-11T14:23:03.268Z,29.50
2019-04-11T14:25:46.704Z,29.60
2019-04-11T14:28:17.847Z,29.60
2019-04-11T14:31:05.401Z,29.60
2019-04-11T14:33:36.552Z,29.60
2019-04-11T14:36:32.750Z,29.60
2019-04-11T14:38:56.930Z,29.70
2019-04-11T14:41:46.148Z,29.60
2019-04-11T14:44:17.094Z,29.70
2019-04-11T14:47:07.388Z,29.70
2019-04-11T14:49:40.568Z,29.60
2019-04-11T14:52:09.814Z,29.60
2019-04-11T14:54:40.966Z,29.50
2019-04-11T14:57:18.110Z,29.40
2019-04-11T14:59:49.261Z,29.40
2019-04-11T15:02:20.372Z,29.50
2019-04-11T15:04:55.374Z,29.40
2019-04-11T15:07:24.927Z,29.30
2019-04-11T15:10:14.676Z,29.30
2019-04-11T15:12:45.721Z,29.20
2019-04-11T15:15:33.304Z,29.20
2019-04-11T15:18:04.372Z,29.20
2019-04-11T15:20:55.231Z,29.10
2019-04-11T15:23:27.114Z,29.10
2019-04-11T15:26:13.649Z,29.20
2019-04-11T15:28:56.983Z,29.30
2019-04-11T15:31:39.579Z,29.40
2019-04-11T15:34:12.866Z,29.30
2019-04-11T15:36:44.012Z,29.40
2019-04-11T15:39:17.869Z,29.20
2019-04-11T15:41:49.032Z,29.20
2019-04-11T15:44:38.603Z,29.30
2019-04-11T15:47:09.734Z,29.30
2019-04-11T15:49:43.695Z,29.30
2019-04-11T15:52:14.491Z,29.40
2019-04-11T15:55:05.427Z,29.40
2019-04-11T15:57:37.825Z,29.50
2019-04-11T16:00:22.603Z,29.60
2019-04-11T16:02:53.736Z,29.50
2019-04-11T16:05:31.656Z,29.50
2019-04-11T16:08:20.006Z,29.40
2019-04-11T16:10:54.158Z,29.40
2019-04-11T16:13:34.282Z,29.50
2019-04-11T16:16:11.916Z,29.40
2019-04-11T16:18:49.112Z,29.40
2019-04-11T16:21:23.919Z,29.40
2019-04-11T16:23:56.982Z,29.40
2019-04-11T16:26:35.026Z,29.40
2019-04-11T16:29:24.469Z,29.40
2019-04-11T16:31:55.655Z,29.40
2019-04-11T16:34:48.410Z,29.60
2019-04-11T16:37:13.258Z,29.60
2019-04-11T16:40:00.987Z,29.70
2019-04-11T16:42:32.228Z,29.70
2019-04-11T16:45:19.052Z,29.70
2019-04-11T16:47:56.966Z,29.70
2019-04-11T16:50:26.676Z,29.70
2019-04-11T16:52:56.174Z,29.70
2019-04-11T16:55:25.735Z,29.70
2019-04-11T16:57:55.301Z,29.60
2019-04-11T17:00:24.891Z,29.70
2019-04-11T17:02:55.034Z,30.40
2019-04-11T17:05:26.959Z,31.10
2019-04-11T17:08:01.095Z,32.60
2019-04-11T17:10:48.981Z,31.90
2019-04-11T17:13:18.501Z,31.50
2019-04-11T17:15:48.071Z,31.40
2019-04-11T17:18:18.987Z,31.30
2019-04-11T17:20:48.715Z,31.10
2019-04-11T17:23:18.277Z,31.10
2019-04-11T17:25:52.370Z,30.90
2019-04-11T17:28:22.680Z,31.30
2019-04-11T17:30:54.788Z,31.20
2019-04-11T17:33:22.581Z,31.10
2019-04-11T17:35:52.513Z,31.90
2019-04-11T17:38:22.069Z,31.90
2019-04-11T17:40:51.639Z,31.80
2019-04-11T17:43:21.219Z,31.70
2019-04-11T17:45:50.840Z,31.60
2019-04-11T17:48:20.425Z,31.40
2019-04-11T17:50:50.005Z,31.30
2019-04-11T17:53:19.572Z,31.30
2019-04-11T17:55:49.131Z,31.20
2019-04-11T17:58:18.776Z,31.10
2019-04-11T18:00:49.896Z,31.10
2019-04-11T18:03:19.498Z,31.20
2019-04-11T18:05:49.053Z,31.20
2019-04-11T18:08:20.209Z,31.10
2019-04-11T18:10:49.855Z,31.10
2019-04-11T18:13:19.424Z,31.10
2019-04-11T18:15:51.544Z,31.10
2019-04-11T18:18:21.455Z,31.10
2019-04-11T18:20:51.037Z,31.10
2019-04-11T18:23:20.607Z,31.10
2019-04-11T18:25:51.184Z,31.00
2019-04-11T18:28:21.963Z,31.10
2019-04-11T18:30:54.091Z,31.10
2019-04-11T18:33:23.355Z,31.10
2019-04-11T18:35:52.916Z,31.10
2019-04-11T18:38:22.504Z,31.10
2019-04-11T18:40:52.088Z,31.20
2019-04-11T18:43:21.681Z,31.20
2019-04-11T18:45:51.258Z,31.40
2019-04-11T18:48:21.928Z,31.40
2019-04-11T18:50:53.170Z,31.50
2019-04-11T18:53:23.069Z,31.50
2019-04-11T18:55:52.680Z,31.50
2019-04-11T18:58:22.250Z,31.50
2019-04-11T19:00:51.870Z,31.60
2019-04-11T19:03:22.541Z,31.70
2019-04-11T19:05:52.140Z,31.70
2019-04-11T19:08:21.755Z,31.70
2019-04-11T19:10:51.296Z,31.80
2019-04-11T19:13:20.917Z,31.80
2019-04-11T19:15:50.488Z,31.70
2019-04-11T19:18:20.052Z,31.20
2019-04-11T19:20:50.294Z,31.70
2019-04-11T19:23:20.454Z,31.70
2019-04-11T19:25:50.109Z,31.70
2019-04-11T19:28:19.672Z,31.70
2019-04-11T19:30:49.235Z,31.70
2019-04-11T19:33:19.280Z,31.70
2019-04-11T19:35:49.907Z,31.60
2019-04-11T19:38:23.776Z,31.90
2019-04-11T19:40:55.527Z,32.30
2019-04-11T19:43:24.598Z,32.20
2019-04-11T19:45:54.192Z,32.20
2019-04-11T19:48:25.223Z,32.20
2019-04-11T19:50:58.585Z,34.10
2019-04-11T19:53:26.313Z,34.00
2019-04-11T19:56:05.413Z,34.00
2019-04-11T19:58:34.743Z,34.20
2019-04-11T20:01:04.331Z,34.10
2019-04-11T20:03:35.059Z,34.10
2019-04-11T20:06:04.669Z,33.90
2019-04-11T20:08:34.241Z,33.80
2019-04-11T20:11:03.826Z,33.80
2019-04-11T20:13:33.384Z,33.70
2019-04-11T20:16:03.032Z,33.80
2019-04-11T20:18:32.691Z,33.70
2019-04-11T20:21:02.321Z,33.80
2019-04-11T20:23:32.078Z,33.60
2019-04-11T20:26:01.629Z,33.40
2019-04-11T20:28:31.209Z,33.40
2019-04-11T20:31:00.776Z,33.30
2019-04-11T20:33:33.851Z,33.20
2019-04-11T20:36:01.949Z,33.20
2019-04-11T20:38:31.541Z,33.10
2019-04-11T20:41:01.116Z,33.10
2019-04-11T20:43:30.691Z,33.00
2019-04-11T20:46:01.378Z,33.00
2019-04-11T20:48:35.033Z,32.90
2019-04-11T20:51:03.559Z,32.90
2019-04-11T20:53:36.757Z,32.80
2019-04-11T20:56:04.678Z,32.90
2019-04-11T20:58:34.242Z,32.80
2019-04-11T21:01:05.163Z,32.70
2019-04-11T21:03:34.705Z,32.70
2019-04-11T21:06:04.300Z,32.90
2019-04-11T21:08:36.560Z,33.20
2019-04-11T21:11:05.312Z,33.40
2019-04-11T21:13:38.111Z,33.60
2019-04-11T21:16:06.126Z,33.70
2019-04-11T21:18:35.700Z,33.80
2019-04-11T21:21:05.680Z,35.60
2019-04-11T21:23:35.247Z,36.00
2019-04-11T21:26:06.085Z,36.20
2019-04-11T21:28:35.644Z,36.10
2019-04-11T21:31:05.212Z,36.00
2019-04-11T21:33:35.751Z,35.90
2019-04-11T21:36:05.329Z,35.80
2019-04-11T21:38:34.936Z,35.70
2019-04-11T21:41:06.112Z,35.50
2019-04-11T21:43:36.306Z,35.40
2019-04-11T21:46:06.823Z,35.30
2019-04-11T21:48:37.107Z,35.10
2019-04-11T21:51:11.086Z,35.00
2019-04-11T21:53:37.912Z,34.80
2019-04-11T21:56:07.483Z,34.80
2019-04-11T21:58:37.070Z,34.60
2019-04-11T22:01:09.147Z,34.60
2019-04-11T22:03:39.223Z,34.70
2019-04-11T22:06:08.818Z,34.30
2019-04-11T22:08:38.387Z,34.20
2019-04-11T22:11:10.162Z,34.20
2019-04-11T22:13:41.639Z,34.10
2019-04-11T22:16:14.282Z,34.50
2019-04-11T22:18:44.377Z,34.00
2019-04-11T22:21:16.303Z,33.90
2019-04-11T22:23:48.814Z,34.00
2019-04-11T22:26:17.096Z,34.00
2019-04-11T22:28:46.659Z,33.90
2019-04-11T22:31:16.252Z,33.90
2019-04-11T22:34:02.265Z,33.70
2019-04-11T22:36:31.832Z,33.70
2019-04-11T22:39:01.650Z,33.70
2019-04-11T22:41:32.863Z,33.60
2019-04-11T22:44:02.479Z,33.50
2019-04-11T22:46:32.051Z,33.60
2019-04-11T22:49:01.627Z,33.50
2019-04-11T22:51:31.215Z,33.30
2019-04-11T22:54:00.795Z,33.30
2019-04-11T22:56:30.348Z,33.30
2019-04-11T22:58:59.920Z,33.20
2019-04-11T23:01:29.633Z,33.20
2019-04-11T23:04:00.700Z,33.20
2019-04-11T23:06:32.902Z,33.10
2019-04-11T23:09:02.460Z,33.00
2019-04-11T23:11:33.619Z,32.90
2019-04-11T23:14:03.199Z,32.90
2019-04-11T23:16:32.771Z,32.80
2019-04-11T23:19:02.387Z,32.80
2019-04-11T23:21:31.981Z,32.80
2019-04-11T23:24:11.528Z,32.70
2019-04-11T23:26:32.763Z,32.60
2019-04-11T23:29:02.313Z,32.50
2019-04-11T23:31:31.904Z,32.60
2019-04-11T23:34:01.476Z,32.40
2019-04-11T23:36:31.081Z,32.40
2019-04-11T23:39:00.643Z,32.40
2019-04-11T23:41:31.863Z,32.40
2019-04-11T23:44:01.412Z,32.40
2019-04-11T23:46:31.002Z,32.30
2019-04-11T23:49:00.552Z,32.30
2019-04-11T23:51:30.101Z,32.20
2019-04-11T23:53:59.905Z,32.20
2019-04-11T23:56:30.590Z,32.20
2019-04-11T23:59:02.140Z,32.10
